BIRK

Reykjavik Airport

Reykjavik, Iceland
TAF BIRK 151057Z 1512/1612 05005KT 9999 FEW008 SCT025 BKN040 TX14/1518Z TN08/1606Z PROB40 TEMPO 1512/1518 SHRA BKN020CB BECMG 1513/1515 33010KT
Issued Valid From Valid To
Aug-15 @ 10:57 UTC
(2 hours ago)
Aug-15 @ 12:00 UTC
(42 minutes ago)
Aug-16 @ 12:00 UTC
(in 23 hours)
Aug-15 @ 12:00 to Aug-15 @ 13:00
TAF BIRK 151057Z 1512/1612 05005KT 9999 FEW008 SCT025 BKN040 TX14/1518Z TN08/1606Z
Wind Visibility Clouds
50° at 5 knots 10,000+ meters
  • Few at 800' AGL
  • Scattered at 2,500' AGL
  • Broken at 4,000' AGL
Temporary  (Probability 40%) Aug-15 @ 12:00 to Aug-15 @ 18:00
PROB40 TEMPO 1512/1518 SHRA BKN020CB
Clouds Conditions
  • Broken at 2,000' AGL
  • Rain
Becoming Aug-15 @ 13:00 to Aug-16 @ 12:00
BECMG 1513/1515 33010KT
Wind Visibility Clouds
330° at 10 knots 10,000+ meters
  • Few at 800' AGL
  • Scattered at 2,500' AGL
  • Broken at 4,000' AGL
TAF BIRK 151057Z 1512/1612 05005KT 9999 FEW008 SCT025 BKN040 TX14/1518Z TN08/1606Z PROB40 TEMPO 1512/1518 SHRA BKN020CB BECMG 1513/1515 33010KT
Issued Aug-15 @ 10:57 UTC
(2 hours ago)
Valid From Aug-15 @ 12:00 UTC
(42 minutes ago)
Valid To Aug-16 @ 12:00 UTC
(in 23 hours)
Aug-15 @ 12:00 - Aug-15 @ 13:00
Wind Visibility
50° at 5 knots 10,000+ meters
Clouds
  • Few at 800' AGL
  • Scattered at 2,500' AGL
  • Broken at 4,000' AGL
Probability 40% Temporary Aug-15 @ 12:00 - Aug-15 @ 18:00
Clouds
  • Broken at 2,000' AGL
Conditions
  • Rain
Becoming Aug-15 @ 13:00 - Aug-16 @ 12:00
Wind Visibility
330° at 10 knots 10,000+ meters
Clouds
  • Few at 800' AGL
  • Scattered at 2,500' AGL
  • Broken at 4,000' AGL